Time;durP1;ratioP1;P1;durP2;ratioP2;P2;SDS_P1;SDS_P2;PMS_P1;PMS_P2;Temp;Humidity;BMP_temperature;BMP_pressure;BME280_temperature;BME280_humidity;BME280_pressure;Samples;Min_cycle;Max_cycle;Signal;HPM_P1;HPM_P2
2021/12/03 00:00:12;;;;;;;5.13;3.50;;;1.40;99.90;;;;;;5076291;28;20207;-68
2021/12/03 00:02:39;;;;;;;3.20;3.00;;;1.40;99.90;;;;;;5075474;28;20187;-68
2021/12/03 00:05:06;;;;;;;6.90;3.85;;;1.30;99.90;;;;;;5076045;28;20279;-69
2021/12/03 00:07:33;;;;;;;4.20;3.85;;;1.30;99.90;;;;;;5075833;28;20555;-69
2021/12/03 00:09:59;;;;;;;3.75;3.45;;;1.30;99.90;;;;;;5075800;28;20257;-69
2021/12/03 00:12:26;;;;;;;3.50;3.20;;;1.40;99.90;;;;;;5075911;28;20531;-70
2021/12/03 00:14:52;;;;;;;4.45;4.15;;;1.30;99.90;;;;;;5076225;28;20200;-70
2021/12/03 00:17:19;;;;;;;3.97;3.63;;;1.30;99.90;;;;;;5075887;28;20212;-70
2021/12/03 00:19:45;;;;;;;5.65;4.18;;;1.30;99.90;;;;;;5076259;28;20208;-68
2021/12/03 00:22:12;;;;;;;4.00;3.40;;;1.30;99.90;;;;;;5075396;28;20606;-68
2021/12/03 00:24:39;;;;;;;4.13;3.83;;;1.30;99.90;;;;;;5075307;28;20207;-68
2021/12/03 00:27:07;;;;;;;5.45;4.07;;;1.30;99.90;;;;;;5075407;28;20199;-69
2021/12/03 00:29:33;;;;;;;5.95;3.85;;;1.30;99.90;;;;;;5075581;28;20208;-69
2021/12/03 00:32:00;;;;;;;3.55;3.22;;;1.20;99.90;;;;;;5075512;28;20235;-68
2021/12/03 00:34:27;;;;;;;4.22;3.83;;;1.20;99.90;;;;;;5075163;28;20577;-68
2021/12/03 00:36:55;;;;;;;6.18;4.25;;;1.10;99.90;;;;;;5074975;28;20690;-68
2021/12/03 00:39:22;;;;;;;5.80;3.92;;;1.10;99.90;;;;;;5075130;28;20688;-68
2021/12/03 00:41:54;;;;;;;6.68;4.57;;;1.10;99.90;;;;;;5074939;28;20207;-68
2021/12/03 00:44:23;;;;;;;6.13;4.00;;;1.10;99.90;;;;;;5075035;28;20196;-68
2021/12/03 00:46:50;;;;;;;4.57;4.15;;;1.10;99.90;;;;;;5075428;28;20624;-68
2021/12/03 00:49:17;;;;;;;7.65;4.57;;;1.00;99.90;;;;;;5074915;28;20652;-69
2021/12/03 00:51:43;;;;;;;4.80;4.30;;;1.00;99.90;;;;;;5073984;28;20192;-68
2021/12/03 00:54:10;;;;;;;4.55;4.15;;;1.00;99.90;;;;;;5074786;28;20234;-68
2021/12/03 00:56:36;;;;;;;4.15;3.75;;;1.00;99.90;;;;;;5074586;28;20227;-68
2021/12/03 00:59:03;;;;;;;5.45;4.47;;;0.90;99.90;;;;;;5073725;28;20207;-69
2021/12/03 01:01:29;;;;;;;6.10;4.60;;;0.90;99.90;;;;;;5075177;28;20272;-68
2021/12/03 01:03:56;;;;;;;4.72;4.13;;;0.80;99.90;;;;;;5074451;28;20196;-69
2021/12/03 01:06:22;;;;;;;5.45;4.47;;;0.80;99.90;;;;;;5074693;28;20200;-69
2021/12/03 01:08:49;;;;;;;6.65;4.55;;;0.80;99.90;;;;;;5074873;28;20206;-69
2021/12/03 01:11:17;;;;;;;5.10;4.25;;;0.80;99.90;;;;;;5075146;28;20208;-69
2021/12/03 01:13:44;;;;;;;7.45;4.40;;;0.80;99.90;;;;;;5074188;28;20204;-67
2021/12/03 01:16:13;;;;;;;8.95;4.90;;;0.70;99.90;;;;;;5073770;28;20220;-67
2021/12/03 01:18:41;;;;;;;7.80;4.40;;;0.70;99.90;;;;;;5074711;28;20204;-67
2021/12/03 01:21:08;;;;;;;5.07;4.55;;;0.60;99.90;;;;;;5073406;28;20196;-67
2021/12/03 01:23:35;;;;;;;7.93;5.20;;;0.60;99.90;;;;;;5074103;28;20192;-67
2021/12/03 01:26:02;;;;;;;6.68;5.20;;;0.50;99.90;;;;;;5074603;28;20276;-67
2021/12/03 01:28:28;;;;;;;7.18;4.25;;;0.50;99.90;;;;;;5072708;28;20206;-67
2021/12/03 01:30:57;;;;;;;6.40;4.45;;;0.40;99.90;;;;;;5073982;28;20204;-68
2021/12/03 01:33:23;;;;;;;4.90;4.40;;;0.30;99.90;;;;;;5074277;28;20288;-68
2021/12/03 01:35:50;;;;;;;5.15;4.47;;;0.30;99.90;;;;;;5074126;28;20277;-68
2021/12/03 01:38:17;;;;;;;6.05;4.57;;;0.20;99.90;;;;;;5073869;28;20200;-68
2021/12/03 01:40:43;;;;;;;4.55;4.15;;;0.20;99.90;;;;;;5073901;28;20204;-68
2021/12/03 01:43:15;;;;;;;6.15;3.92;;;0.20;99.90;;;;;;5073916;28;20276;-68
2021/12/03 01:45:42;;;;;;;6.47;4.50;;;0.10;99.90;;;;;;5074136;28;20196;-68
2021/12/03 01:48:09;;;;;;;6.55;4.10;;;0.00;99.90;;;;;;5074239;28;20249;-68
2021/12/03 01:50:40;;;;;;;7.72;5.55;;;-0.10;99.90;;;;;;5073536;28;20239;-68
2021/12/03 01:53:08;;;;;;;7.03;4.70;;;-0.10;99.90;;;;;;5073915;28;20230;-68
2021/12/03 01:55:35;;;;;;;8.73;4.90;;;-0.10;99.90;;;;;;5073912;28;20264;-68
2021/12/03 01:58:03;;;;;;;6.90;4.53;;;-0.20;99.90;;;;;;5073799;28;20204;-68
2021/12/03 02:00:37;;;;;;;4.75;4.35;;;-0.20;99.90;;;;;;5073767;28;20196;-68
2021/12/03 02:03:06;;;;;;;8.50;5.30;;;-0.30;99.90;;;;;;5073834;28;20218;-68
2021/12/03 02:05:33;;;;;;;7.47;5.10;;;-0.30;99.90;;;;;;5073253;28;20659;-68
2021/12/03 02:07:59;;;;;;;6.38;4.85;;;-0.30;99.90;;;;;;5073814;28;20211;-68
2021/12/03 02:10:26;;;;;;;6.10;4.25;;;-0.30;99.90;;;;;;5073775;28;20210;-68
2021/12/03 02:12:53;;;;;;;5.15;4.60;;;-0.40;99.90;;;;;;5073570;28;20196;-68
2021/12/03 02:15:19;;;;;;;7.13;5.80;;;-0.30;99.90;;;;;;5073303;28;20659;-68
2021/12/03 02:17:46;;;;;;;10.35;6.97;;;-0.30;99.90;;;;;;5073355;28;20216;-68
2021/12/03 02:20:14;;;;;;;8.80;5.82;;;-0.20;99.90;;;;;;5073455;28;20203;-68
2021/12/03 02:22:42;;;;;;;6.10;5.50;;;-0.30;99.90;;;;;;5073186;28;20215;-68
2021/12/03 02:25:13;;;;;;;8.48;6.20;;;-0.20;99.90;;;;;;5073318;28;20203;-68
2021/12/03 02:27:40;;;;;;;8.52;6.50;;;-0.20;99.90;;;;;;5073606;28;20188;-68
2021/12/03 02:30:09;;;;;;;8.70;5.70;;;-0.30;99.90;;;;;;5073402;28;20253;-68
2021/12/03 02:32:35;;;;;;;8.90;6.35;;;-0.30;99.90;;;;;;5073070;28;20215;-68
2021/12/03 02:35:03;;;;;;;9.45;6.00;;;-0.40;99.90;;;;;;5073043;28;20215;-68
2021/12/03 02:37:29;;;;;;;7.30;6.07;;;-0.40;99.90;;;;;;5073171;28;20220;-68
2021/12/03 02:39:56;;;;;;;9.07;5.45;;;-0.40;99.90;;;;;;5073450;28;20203;-68
2021/12/03 02:42:22;;;;;;;9.43;5.10;;;-0.40;99.90;;;;;;5072817;28;20207;-68
2021/12/03 02:44:49;;;;;;;7.40;6.25;;;-0.40;99.90;;;;;;5072873;28;20200;-68
2021/12/03 02:47:15;;;;;;;10.02;7.10;;;-0.40;99.90;;;;;;5073318;28;20196;-68
2021/12/03 02:49:42;;;;;;;10.45;6.00;;;-0.40;99.90;;;;;;5072948;28;20236;-66
2021/12/03 02:52:10;;;;;;;9.65;6.32;;;-0.40;99.90;;;;;;5073107;28;20647;-67
2021/12/03 02:54:37;;;;;;;8.75;6.25;;;-0.40;99.90;;;;;;5072830;28;20226;-67
2021/12/03 02:57:04;;;;;;;10.02;6.60;;;-0.40;99.90;;;;;;5073247;28;20223;-67
2021/12/03 02:59:32;;;;;;;8.43;6.90;;;-0.40;99.90;;;;;;5073281;28;20196;-66
2021/12/03 03:02:00;;;;;;;10.02;6.57;;;-0.30;99.90;;;;;;5073238;28;20553;-67
2021/12/03 03:04:27;;;;;;;9.90;6.55;;;-0.40;99.90;;;;;;5073117;28;20204;-67
2021/12/03 03:06:53;;;;;;;9.32;5.90;;;-0.30;99.90;;;;;;5073431;28;20199;-68
2021/12/03 03:09:20;;;;;;;10.15;6.13;;;-0.30;99.90;;;;;;5073007;28;20208;-68
2021/12/03 03:11:47;;;;;;;11.35;8.10;;;-0.40;99.90;;;;;;5072842;28;20196;-68
2021/12/03 03:14:14;;;;;;;12.48;6.85;;;-0.30;99.90;;;;;;5072943;28;20207;-67
2021/12/03 03:16:40;;;;;;;14.50;7.90;;;-0.30;99.90;;;;;;5073204;28;20223;-67
2021/12/03 03:19:25;;;;;;;10.45;6.80;;;-0.30;99.90;;;;;;5072678;28;20203;-67
2021/12/03 03:21:51;;;;;;;11.15;7.10;;;-0.30;99.90;;;;;;5072026;28;20189;-67
2021/12/03 03:24:19;;;;;;;10.55;7.65;;;-0.40;99.90;;;;;;5073145;28;20200;-67
2021/12/03 03:26:46;;;;;;;10.88;7.30;;;-0.40;99.90;;;;;;5073109;28;20200;-67
2021/12/03 03:29:16;;;;;;;15.18;8.50;;;-0.40;99.90;;;;;;5072804;28;20566;-68
2021/12/03 03:31:43;;;;;;;19.10;11.65;;;-0.50;99.90;;;;;;5072384;28;20204;-68
2021/12/03 03:34:10;;;;;;;18.58;10.98;;;-0.50;99.90;;;;;;5072904;28;20211;-68
2021/12/03 03:36:39;;;;;;;11.05;7.80;;;-0.50;99.90;;;;;;5073027;28;20618;-68
2021/12/03 03:39:08;;;;;;;10.65;7.20;;;-0.60;99.90;;;;;;5075529;28;20691;-68
2021/12/03 03:41:34;;;;;;;9.52;6.78;;;-0.70;99.90;;;;;;5076534;28;20204;-67
2021/12/03 03:44:01;;;;;;;11.38;6.70;;;-0.80;99.90;;;;;;5075064;28;20204;-68
2021/12/03 03:46:27;;;;;;;18.17;7.72;;;-0.80;99.90;;;;;;5075236;28;20196;-68
2021/12/03 03:48:54;;;;;;;11.90;6.63;;;-0.80;99.90;;;;;;5076088;28;20196;-67
2021/12/03 03:51:21;;;;;;;9.25;6.50;;;-0.80;99.90;;;;;;5075838;28;20254;-68
2021/12/03 03:53:48;;;;;;;12.15;6.50;;;-0.80;99.90;;;;;;5075870;28;20219;-68
2021/12/03 03:56:14;;;;;;;10.38;7.47;;;-0.80;99.90;;;;;;5074897;28;20215;-71
2021/12/03 03:58:41;;;;;;;8.98;7.15;;;-0.80;99.90;;;;;;5076060;28;20556;-68
2021/12/03 04:01:14;;;;;;;15.02;6.90;;;-0.80;99.90;;;;;;5076024;28;20203;-69
2021/12/03 04:03:45;;;;;;;11.02;6.65;;;-0.80;99.90;;;;;;5076423;28;20196;-67
2021/12/03 04:06:16;;;;;;;12.02;7.43;;;-0.80;99.90;;;;;;5076084;28;20200;-67
2021/12/03 04:08:45;;;;;;;13.50;8.68;;;-0.90;99.90;;;;;;5075769;28;20192;-67
2021/12/03 04:11:12;;;;;;;12.80;8.00;;;-0.90;99.90;;;;;;5074959;28;20200;-68
2021/12/03 04:13:39;;;;;;;14.27;8.18;;;-1.00;99.90;;;;;;5076464;28;20203;-68
2021/12/03 04:16:05;;;;;;;13.85;8.90;;;-0.90;99.90;;;;;;5076153;28;20200;-68
2021/12/03 04:18:32;;;;;;;10.95;6.93;;;-0.90;99.90;;;;;;5076002;28;20196;-68
2021/12/03 04:20:58;;;;;;;12.63;8.48;;;-0.90;99.90;;;;;;5075675;28;20261;-69
2021/12/03 04:23:25;;;;;;;9.05;6.70;;;-0.90;99.90;;;;;;5075646;28;20203;-67
2021/12/03 04:25:52;;;;;;;11.75;8.48;;;-0.90;99.90;;;;;;5075391;28;20257;-68
2021/12/03 04:28:19;;;;;;;11.55;8.55;;;-1.00;99.90;;;;;;5075511;28;20208;-69
2021/12/03 04:30:47;;;;;;;12.27;9.05;;;-0.90;99.90;;;;;;5075828;28;20215;-69
2021/12/03 04:33:13;;;;;;;12.18;8.68;;;-1.00;99.90;;;;;;5075639;28;20203;-69
2021/12/03 04:35:40;;;;;;;13.10;8.85;;;-1.00;99.90;;;;;;5075392;28;20204;-69
2021/12/03 04:38:06;;;;;;;13.10;8.60;;;-1.00;99.90;;;;;;5075499;28;20216;-70
2021/12/03 04:40:35;;;;;;;23.40;10.63;;;-1.10;99.90;;;;;;5075902;28;20203;-69
2021/12/03 04:43:02;;;;;;;15.98;9.48;;;-1.10;99.90;;;;;;5075526;28;20196;-68
2021/12/03 04:45:30;;;;;;;19.27;9.20;;;-1.10;99.90;;;;;;5076346;28;20577;-69
2021/12/03 04:47:59;;;;;;;15.63;10.27;;;-1.10;99.90;;;;;;5075764;28;20200;-68
2021/12/03 04:50:30;;;;;;;16.92;10.63;;;-1.10;99.90;;;;;;5075086;28;20577;-68
2021/12/03 04:52:58;;;;;;;29.25;10.07;;;-1.20;99.90;;;;;;5075313;28;20211;-69
2021/12/03 04:55:26;;;;;;;16.13;11.35;;;-1.20;99.90;;;;;;5075666;28;20204;-69
2021/12/03 04:57:55;;;;;;;16.40;10.05;;;-1.20;99.90;;;;;;5075030;28;20737;-69
2021/12/03 05:00:32;;;;;;;16.38;10.52;;;-1.20;99.90;;;;;;5075343;28;20214;-69
2021/12/03 05:03:00;;;;;;;23.27;10.93;;;-1.20;99.90;;;;;;5075131;28;20184;-69
2021/12/03 05:05:31;;;;;;;19.73;11.88;;;-1.30;99.90;;;;;;5075073;28;20196;-69
2021/12/03 05:07:59;;;;;;;20.05;10.20;;;-1.20;99.90;;;;;;5075127;28;20660;-69
2021/12/03 05:10:28;;;;;;;22.13;11.90;;;-1.30;99.90;;;;;;5074984;28;20203;-69
2021/12/03 05:13:01;;;;;;;16.05;10.07;;;-1.30;99.90;;;;;;5075164;28;20565;-69
2021/12/03 05:15:28;;;;;;;19.83;12.02;;;-1.30;99.90;;;;;;5075235;28;20188;-70
2021/12/03 05:17:55;;;;;;;21.45;11.45;;;-1.40;99.90;;;;;;5074891;28;20355;-69
2021/12/03 05:20:21;;;;;;;17.75;11.57;;;-1.40;99.90;;;;;;5074523;28;20196;-69
2021/12/03 05:22:48;;;;;;;22.60;11.75;;;-1.40;99.90;;;;;;5073608;28;20218;-69
2021/12/03 05:25:15;;;;;;;22.38;12.23;;;-1.40;99.90;;;;;;5074958;28;20196;-69
2021/12/03 05:27:41;;;;;;;20.48;11.70;;;-1.30;99.90;;;;;;5074238;28;20196;-69
2021/12/03 05:30:09;;;;;;;21.63;11.30;;;-1.30;99.90;;;;;;5074564;28;20199;-69
2021/12/03 05:32:35;;;;;;;22.23;11.02;;;-1.40;99.90;;;;;;5074628;28;20196;-69
2021/12/03 05:35:03;;;;;;;20.67;12.82;;;-1.40;99.90;;;;;;5074404;28;20204;-69
2021/12/03 05:37:30;;;;;;;23.60;13.38;;;-1.40;99.90;;;;;;5074510;28;20242;-69
2021/12/03 05:39:56;;;;;;;17.48;11.60;;;-1.30;99.90;;;;;;5074089;28;20204;-69
2021/12/03 05:42:23;;;;;;;22.33;12.57;;;-1.40;99.90;;;;;;5074375;28;20225;-69
2021/12/03 05:44:50;;;;;;;20.65;13.13;;;-1.40;99.90;;;;;;5074450;28;20202;-69
2021/12/03 05:47:16;;;;;;;23.35;14.10;;;-1.40;99.90;;;;;;5074111;28;20663;-68
2021/12/03 05:49:42;;;;;;;24.77;14.13;;;-1.40;99.90;;;;;;5074369;28;20707;-69
2021/12/03 05:52:09;;;;;;;25.65;12.88;;;-1.40;99.90;;;;;;5074151;28;20204;-69
2021/12/03 05:54:36;;;;;;;28.40;14.75;;;-1.40;99.90;;;;;;5074099;28;20228;-68
2021/12/03 05:57:02;;;;;;;24.13;14.50;;;-1.40;99.90;;;;;;5073724;28;20223;-68
2021/12/03 05:59:29;;;;;;;27.55;14.32;;;-1.40;99.90;;;;;;5073641;28;20702;-69
2021/12/03 06:01:55;;;;;;;22.08;13.63;;;-1.40;99.90;;;;;;5073284;28;20202;-69
2021/12/03 06:04:22;;;;;;;26.58;13.80;;;-1.40;99.90;;;;;;5073780;28;20208;-68
2021/12/03 06:06:48;;;;;;;25.27;13.98;;;-1.50;99.90;;;;;;5073784;28;20207;-69
2021/12/03 06:09:15;;;;;;;22.05;12.18;;;-1.50;99.90;;;;;;5072666;28;20204;-69
2021/12/03 06:11:41;;;;;;;27.10;13.68;;;-1.40;99.90;;;;;;5073513;28;20216;-69
2021/12/03 06:14:08;;;;;;;26.85;14.10;;;-1.40;99.90;;;;;;5074362;28;20214;-69
2021/12/03 06:16:34;;;;;;;29.45;13.80;;;-1.40;99.90;;;;;;5073419;28;20575;-70
2021/12/03 06:19:00;;;;;;;21.73;12.90;;;-1.40;99.90;;;;;;5073986;28;20616;-69
2021/12/03 06:21:27;;;;;;;19.60;12.55;;;-1.40;99.90;;;;;;5072491;28;20242;-68
2021/12/03 06:23:53;;;;;;;22.45;13.32;;;-1.40;99.90;;;;;;5072846;28;20196;-68
2021/12/03 06:26:20;;;;;;;23.10;13.85;;;-1.40;99.90;;;;;;5073740;28;20196;-68
2021/12/03 06:28:47;;;;;;;22.50;12.60;;;-1.40;99.90;;;;;;5055959;28;20207;-68
2021/12/03 06:31:13;;;;;;;21.42;12.77;;;-1.30;99.90;;;;;;5073486;28;20208;-68
2021/12/03 06:33:40;;;;;;;24.45;13.60;;;-1.20;99.90;;;;;;5073617;28;20208;-68
2021/12/03 06:36:06;;;;;;;24.85;13.85;;;-1.10;99.90;;;;;;5073358;28;20204;-68
2021/12/03 06:38:33;;;;;;;20.73;11.95;;;-1.10;99.90;;;;;;5073693;28;20216;-68
2021/12/03 06:41:00;;;;;;;21.02;12.23;;;-1.10;99.90;;;;;;5073115;28;20200;-68
2021/12/03 06:43:27;;;;;;;24.55;14.40;;;-1.10;99.90;;;;;;5072215;28;20200;-68
2021/12/03 06:45:53;;;;;;;22.10;13.25;;;-1.00;99.90;;;;;;5073825;28;20200;-68
2021/12/03 06:48:20;;;;;;;20.20;13.55;;;-1.10;99.90;;;;;;5072431;28;20616;-68
2021/12/03 06:50:49;;;;;;;21.85;13.07;;;-1.10;99.90;;;;;;5073012;28;20228;-68
2021/12/03 06:53:19;;;;;;;23.83;12.52;;;-1.20;99.90;;;;;;5073651;28;20612;-68
2021/12/03 06:56:03;;;;;;;25.25;13.48;;;-1.20;99.90;;;;;;5074500;28;20265;-67
2021/12/03 06:58:30;;;;;;;21.13;12.60;;;-1.20;99.90;;;;;;5073858;28;20215;-68
2021/12/03 07:00:57;;;;;;;20.77;13.35;;;-1.30;99.90;;;;;;5073583;28;20218;-67
2021/12/03 07:03:24;;;;;;;23.23;14.02;;;-1.30;99.90;;;;;;5073396;28;20223;-67
2021/12/03 07:05:50;;;;;;;21.70;13.35;;;-1.30;99.90;;;;;;5071767;28;20203;-67
2021/12/03 07:08:17;;;;;;;19.67;13.05;;;-1.30;99.90;;;;;;5073302;28;20570;-67
2021/12/03 07:10:43;;;;;;;19.73;12.05;;;-1.30;99.90;;;;;;5073123;28;20195;-68
2021/12/03 07:13:09;;;;;;;21.60;13.75;;;-1.30;99.90;;;;;;5074323;28;20200;-68
2021/12/03 07:15:36;;;;;;;27.02;14.50;;;-1.20;99.90;;;;;;5077061;28;20257;-67
2021/12/03 07:18:04;;;;;;;25.50;15.27;;;-1.10;99.90;;;;;;5077142;28;20224;-69
2021/12/03 07:20:30;;;;;;;23.60;13.20;;;-0.90;99.90;;;;;;5077556;28;20204;-69
2021/12/03 07:22:57;;;;;;;27.83;13.48;;;-0.90;99.90;;;;;;5075968;28;20211;-69
2021/12/03 07:25:24;;;;;;;23.48;11.30;;;-0.80;99.90;;;;;;5077363;28;20569;-68
2021/12/03 07:27:50;;;;;;;18.88;11.15;;;-0.60;99.90;;;;;;5075817;28;20208;-68
2021/12/03 07:30:18;;;;;;;19.63;8.77;;;-0.50;99.90;;;;;;5077101;28;20207;-68
2021/12/03 07:32:45;;;;;;;16.00;8.68;;;-0.30;99.90;;;;;;5077361;28;20200;-68
2021/12/03 07:35:12;;;;;;;13.43;8.20;;;-0.20;99.90;;;;;;5077188;28;20208;-68
2021/12/03 07:37:39;;;;;;;15.15;8.32;;;-0.10;99.90;;;;;;5076587;28;20224;-68
2021/12/03 07:40:08;;;;;;;14.43;7.72;;;0.00;99.90;;;;;;5075252;28;20196;-68
2021/12/03 07:42:35;;;;;;;9.60;7.65;;;0.10;99.90;;;;;;5076321;28;20200;-69
2021/12/03 07:45:05;;;;;;;9.05;7.43;;;0.20;99.90;;;;;;5076703;28;20211;-69
2021/12/03 07:47:32;;;;;;;14.90;8.52;;;0.20;99.90;;;;;;5076470;28;20208;-69
2021/12/03 07:49:59;;;;;;;10.18;7.07;;;0.30;99.90;;;;;;5076140;28;20232;-70
2021/12/03 07:52:26;;;;;;;10.15;8.07;;;0.30;99.90;;;;;;5076613;28;20215;-69
2021/12/03 07:54:52;;;;;;;7.00;6.30;;;0.50;99.90;;;;;;5076362;28;20718;-69
2021/12/03 07:57:19;;;;;;;6.93;5.47;;;0.50;99.90;;;;;;5076199;28;20690;-69
2021/12/03 07:59:45;;;;;;;8.27;5.78;;;0.60;99.90;;;;;;5076343;28;20207;-69
2021/12/03 08:02:12;;;;;;;6.20;5.60;;;0.70;99.90;;;;;;5075982;28;20204;-69
2021/12/03 08:04:38;;;;;;;7.00;5.40;;;0.80;99.90;;;;;;5076101;28;20602;-69
2021/12/03 08:07:05;;;;;;;7.75;5.38;;;0.80;99.90;;;;;;5075839;28;20204;-70
2021/12/03 08:09:32;;;;;;;8.25;5.32;;;0.90;99.90;;;;;;5075672;28;20200;-69
2021/12/03 08:11:58;;;;;;;5.28;4.75;;;0.90;99.90;;;;;;5076340;28;20590;-71
2021/12/03 08:14:25;;;;;;;8.98;6.05;;;0.90;99.90;;;;;;5076158;28;20241;-68
2021/12/03 08:16:51;;;;;;;6.80;6.05;;;0.90;99.90;;;;;;5076076;28;20374;-68
2021/12/03 08:19:17;;;;;;;11.15;6.90;;;0.90;99.90;;;;;;5076006;28;20253;-69
2021/12/03 08:21:44;;;;;;;9.73;6.57;;;0.90;99.90;;;;;;5075837;28;20199;-69
2021/12/03 08:24:10;;;;;;;7.03;5.80;;;1.00;99.90;;;;;;5075622;28;20200;-69
2021/12/03 08:26:37;;;;;;;11.88;6.93;;;1.00;99.90;;;;;;5076128;28;20207;-69
2021/12/03 08:29:04;;;;;;;6.72;4.97;;;1.00;99.90;;;;;;5076189;28;20662;-69
2021/12/03 08:31:31;;;;;;;11.18;6.43;;;1.00;99.90;;;;;;5076065;28;20207;-69
2021/12/03 08:33:57;;;;;;;11.75;7.43;;;1.00;99.90;;;;;;5075909;28;20207;-69
2021/12/03 08:36:24;;;;;;;13.63;8.60;;;1.00;99.90;;;;;;5075706;28;20236;-69
2021/12/03 08:38:51;;;;;;;13.23;8.90;;;1.00;99.90;;;;;;5075574;28;20630;-70
2021/12/03 08:41:18;;;;;;;11.25;7.95;;;1.00;99.90;;;;;;5075642;28;20230;-69
2021/12/03 08:43:47;;;;;;;17.33;9.88;;;1.00;99.90;;;;;;5075515;28;20214;-69
2021/12/03 08:46:22;;;;;;;12.63;8.25;;;1.00;99.90;;;;;;5075035;28;20587;-69
2021/12/03 08:48:49;;;;;;;18.60;9.38;;;1.00;99.90;;;;;;5074897;28;20697;-69
2021/12/03 08:56:28;;;;;;;17.25;9.30;;;1.00;99.90;;;;;;5074946;28;20195;-69
2021/12/03 08:58:55;;;;;;;11.57;8.70;;;1.00;99.90;;;;;;5074650;28;20727;-69
2021/12/03 09:01:22;;;;;;;17.33;8.73;;;1.00;99.90;;;;;;5075134;28;20204;-70
2021/12/03 09:03:48;;;;;;;15.55;9.27;;;1.00;99.90;;;;;;5074990;28;20537;-70
2021/12/03 09:06:15;;;;;;;14.23;8.98;;;1.00;99.90;;;;;;5075066;28;20252;-70
2021/12/03 09:08:41;;;;;;;15.73;8.55;;;1.00;99.90;;;;;;5075530;28;20215;-70
2021/12/03 09:11:09;;;;;;;13.60;9.25;;;1.00;99.90;;;;;;5074966;28;20211;-68
2021/12/03 09:13:36;;;;;;;14.02;7.35;;;1.10;99.90;;;;;;5075269;28;20265;-68
2021/12/03 09:16:16;;;;;;;10.40;7.38;;;1.10;99.90;;;;;;5073432;28;20655;-69
2021/12/03 09:18:45;;;;;;;10.88;6.75;;;1.20;99.90;;;;;;5075273;28;20227;-68
2021/12/03 09:26:15;;;;;;;10.20;6.53;;;1.30;99.90;;;;;;5074961;28;20184;-69
2021/12/03 09:28:45;;;;;;;11.15;5.82;;;1.40;99.90;;;;;;5074782;28;20215;-69
2021/12/03 09:31:13;;;;;;;10.15;4.90;;;1.40;99.90;;;;;;5074836;28;20216;-69
2021/12/03 09:33:41;;;;;;;5.43;4.60;;;1.50;99.90;;;;;;5074404;28;20207;-68
2021/12/03 09:36:09;;;;;;;7.63;5.05;;;1.50;99.90;;;;;;5073360;28;20222;-69
2021/12/03 09:38:36;;;;;;;6.90;5.13;;;1.50;99.90;;;;;;5074321;28;20250;-69
2021/12/03 09:41:09;;;;;;;5.38;4.63;;;1.50;99.90;;;;;;5074569;28;20207;-68
2021/12/03 09:43:40;;;;;;;12.15;4.55;;;1.60;99.90;;;;;;5073984;28;20219;-70
2021/12/03 09:51:23;;;;;;;13.23;5.20;;;1.70;99.90;;;;;;5073791;28;20250;-70
2021/12/03 09:54:20;;;;;;;6.35;4.70;;;1.70;99.90;;;;;;5073930;28;20224;-69
2021/12/03 09:56:47;;;;;;;9.80;4.68;;;1.80;99.90;;;;;;5072896;28;20212;-69
2021/12/03 10:02:17;;;;;;;8.73;5.20;;;1.80;99.90;;;;;;5074221;28;20184;-69
2021/12/03 10:13:45;;;;;;;8.90;3.75;;;2.10;99.90;;;;;;5073608;28;20194;-69
2021/12/03 10:18:52;;;;;;;5.00;4.10;;;2.50;99.90;;;;;;5073878;28;20220;-70
2021/12/03 10:22:08;;;;;;;9.52;4.65;;;2.60;99.90;;;;;;5073528;28;20256;-70
2021/12/03 10:25:07;;;;;;;3.90;3.53;;;2.50;99.90;;;;;;5073880;28;20246;-69
2021/12/03 10:28:05;;;;;;;6.10;3.72;;;2.70;99.90;;;;;;5073784;28;20211;-70
2021/12/03 10:36:23;;;;;;;12.35;4.22;;;2.80;99.90;;;;;;5074095;28;20187;-70
2021/12/03 10:39:11;;;;;;;6.32;4.47;;;2.90;99.90;;;;;;5073386;28;20219;-69
2021/12/03 10:47:06;;;;;;;4.20;3.80;;;3.40;99.90;;;;;;5071658;28;20325;-69
2021/12/03 11:14:27;;;;;;;4.60;4.18;;;3.30;99.90;;;;;;5072899;28;20589;-69
2021/12/03 11:36:28;;;;;;;5.55;4.75;;;3.10;99.90;;;;;;5072848;28;20663;-70
2021/12/03 12:25:01;;;;;;;6.30;5.57;;;3.90;99.90;;;;;;5075869;28;20184;-70
2021/12/03 12:41:56;;;;;;;6.65;4.60;;;3.80;99.90;;;;;;5075311;28;20200;-70
2021/12/03 13:10:09;;;;;;;5.78;4.47;;;3.40;99.90;;;;;;5059322;28;20587;-69
2021/12/03 13:30:15;;;;;;;11.45;5.30;;;3.70;99.90;;;;;;5074302;28;20581;-67
2021/12/03 14:22:48;;;;;;;8.90;5.80;;;3.70;99.90;;;;;;5051493;28;20205;-70
2021/12/03 14:56:21;;;;;;;8.55;6.38;;;3.50;99.90;;;;;;5072934;28;20723;-69
2021/12/03 14:59:22;;;;;;;12.43;9.85;;;3.50;99.90;;;;;;5073210;28;20215;-69
2021/12/03 15:01:58;;;;;;;5.20;4.55;;;3.50;99.90;;;;;;5073158;28;20183;-69
2021/12/03 15:07:04;;;;;;;7.20;4.47;;;3.40;99.90;;;;;;5072888;28;20203;-70
2021/12/03 15:09:51;;;;;;;5.93;4.82;;;3.40;99.90;;;;;;5073074;28;20195;-69
2021/12/03 15:22:47;;;;;;;4.38;4.00;;;3.40;99.90;;;;;;5073077;28;20195;-69
2021/12/03 15:34:06;;;;;;;9.70;4.90;;;3.30;99.90;;;;;;5061596;28;20199;-69
2021/12/03 15:36:53;;;;;;;9.20;4.35;;;3.20;99.90;;;;;;5076837;28;20561;-69
2021/12/03 15:39:37;;;;;;;7.97;4.40;;;3.30;99.90;;;;;;5076409;28;20224;-69
2021/12/03 15:58:33;;;;;;;4.45;4.00;;;3.20;99.90;;;;;;5056191;28;20193;-70
2021/12/03 16:03:53;;;;;;;4.50;4.10;;;3.10;99.90;;;;;;5056186;28;20183;-69
2021/12/03 16:06:28;;;;;;;5.60;4.57;;;3.10;99.90;;;;;;5056497;28;20193;-69
2021/12/03 16:09:00;;;;;;;6.60;4.20;;;3.10;99.90;;;;;;5055112;28;20184;-69
2021/12/03 16:11:48;;;;;;;4.57;4.18;;;3.10;99.90;;;;;;5055895;28;20209;-69
2021/12/03 16:19:57;;;;;;;6.53;4.80;;;3.10;99.90;;;;;;5055459;28;20687;-69
2021/12/03 16:25:32;;;;;;;4.70;4.28;;;3.00;99.90;;;;;;5055407;28;20552;-69
2021/12/03 16:47:28;;;;;;;12.10;6.18;;;2.90;99.90;;;;;;5055552;28;20192;-70
2021/12/03 16:50:37;;;;;;;6.43;5.15;;;2.90;99.90;;;;;;5055141;28;20236;-70
2021/12/03 16:52:53;;;;;;;5.60;5.10;;;2.90;99.90;;;;;;5055210;28;20204;-69
2021/12/03 16:55:20;;;;;;;6.32;5.38;;;2.90;99.90;;;;;;5055297;28;20550;-68
2021/12/03 16:57:51;;;;;;;7.65;4.72;;;2.90;99.90;;;;;;5055025;28;20672;-69
2021/12/03 17:00:33;;;;;;;5.55;4.70;;;2.90;99.90;;;;;;5055256;28;20228;-69
2021/12/03 17:03:07;;;;;;;7.10;4.80;;;2.90;99.90;;;;;;5053286;28;20200;-69
2021/12/03 17:16:21;;;;;;;5.90;5.25;;;2.80;99.90;;;;;;5054595;28;20189;-69
2021/12/03 17:22:10;;;;;;;10.50;6.05;;;2.80;99.90;;;;;;5054505;28;20658;-69
2021/12/03 17:48:56;;;;;;;8.30;4.55;;;2.90;99.90;;;;;;5054428;28;20209;-69
2021/12/03 17:51:40;;;;;;;6.32;4.75;;;2.90;99.90;;;;;;5053850;28;20359;-69
2021/12/03 17:56:40;;;;;;;5.53;4.40;;;2.90;99.90;;;;;;5053628;28;20197;-69
2021/12/03 18:04:11;;;;;;;5.38;4.78;;;2.90;99.90;;;;;;5054280;28;20231;-69
2021/12/03 18:06:54;;;;;;;4.78;4.18;;;2.90;99.90;;;;;;5052688;28;20192;-69
2021/12/03 18:55:11;;;;;;;5.88;4.60;;;3.00;99.90;;;;;;5053332;28;20224;-69
2021/12/03 18:57:44;;;;;;;4.30;3.90;;;2.90;99.90;;;;;;5053557;28;20242;-69
2021/12/03 19:00:16;;;;;;;6.07;5.20;;;2.90;99.90;;;;;;5053306;28;20216;-69
2021/12/03 19:02:47;;;;;;;6.32;5.47;;;2.90;99.90;;;;;;5053204;28;20642;-69
2021/12/03 19:08:02;;;;;;;5.03;4.53;;;3.00;99.90;;;;;;5054146;28;20603;-69
2021/12/03 19:10:31;;;;;;;7.05;4.28;;;3.00;99.90;;;;;;5057367;28;20208;-68
2021/12/03 19:13:10;;;;;;;5.25;4.70;;;2.90;99.90;;;;;;5056935;28;20201;-70
2021/12/03 19:15:39;;;;;;;6.47;5.25;;;2.90;99.90;;;;;;5057751;28;20184;-70
2021/12/03 19:18:06;;;;;;;6.70;4.95;;;2.90;99.90;;;;;;5057507;28;20207;-68
2021/12/03 19:20:37;;;;;;;9.68;5.13;;;2.90;99.90;;;;;;5056707;28;20585;-69
2021/12/03 19:23:03;;;;;;;5.97;4.72;;;2.90;99.90;;;;;;5055232;28;20196;-69
2021/12/03 19:25:30;;;;;;;7.60;5.00;;;2.90;99.90;;;;;;5055881;28;20337;-69
2021/12/03 19:27:56;;;;;;;7.90;5.70;;;2.90;99.90;;;;;;5056877;28;20522;-68
2021/12/03 19:30:23;;;;;;;7.03;5.00;;;2.90;99.90;;;;;;5056608;28;20204;-68
2021/12/03 19:32:49;;;;;;;4.85;4.38;;;3.00;99.90;;;;;;5056697;28;20564;-69
2021/12/03 19:35:16;;;;;;;6.47;4.85;;;3.00;99.90;;;;;;5057171;28;20204;-69
2021/12/03 19:37:43;;;;;;;6.25;4.45;;;3.00;99.90;;;;;;5057148;28;20208;-69
2021/12/03 19:40:11;;;;;;;5.70;4.70;;;3.00;99.90;;;;;;5055655;28;20217;-69
2021/12/03 19:42:53;;;;;;;6.40;4.30;;;3.00;99.90;;;;;;5055262;28;20201;-69
2021/12/03 19:45:23;;;;;;;6.60;4.47;;;3.00;99.90;;;;;;5056505;28;20201;-69
2021/12/03 19:48:02;;;;;;;5.30;4.50;;;3.00;99.90;;;;;;5055339;28;20209;-69
2021/12/03 19:53:12;;;;;;;5.00;4.50;;;3.00;99.90;;;;;;5056442;28;20542;-69
2021/12/03 19:55:40;;;;;;;3.75;3.45;;;3.10;99.90;;;;;;5056531;28;20204;-70
2021/12/03 19:58:09;;;;;;;4.07;3.47;;;3.10;99.90;;;;;;5056271;28;20216;-68
2021/12/03 20:00:37;;;;;;;4.15;3.50;;;3.10;99.90;;;;;;5057683;28;20221;-68
2021/12/03 20:03:04;;;;;;;4.00;3.65;;;3.20;99.90;;;;;;5055631;28;20209;-69
2021/12/03 20:05:30;;;;;;;4.00;3.53;;;3.10;99.90;;;;;;5054826;28;20197;-69
2021/12/03 20:07:59;;;;;;;4.85;4.05;;;3.10;99.90;;;;;;5055667;28;20201;-69
2021/12/03 20:10:28;;;;;;;6.88;4.15;;;3.10;99.90;;;;;;5056298;28;20204;-69